logo
Search for airport 
image banner adimage banner adimage banner ad
image banner ad

YXLM - Lamb Island

Located in Lamb Island, Australia

ICAO - , IATA -

Data provided by Airmate  

General information

Coordinates: S27°37'0" E153°22'60"
Elevation is 29 feet MSL.
Magnetic variation is 11° East
View others Airports in Queensland

Operational data

Special qualification required
Current time UTC:
Current local time:
Weather at : YBBN - Brisbane ( 37 km )
METAR: YBBN 171300Z 24013KT CAVOK 12/04 Q1015
TAF: TAF YBBN 171108Z 1712/1818 25009KT CAVOK
View NOTAMs / SUP AIP / TFR affecting this airport [VIEW]
Communications frequencies: [VIEW]

Runways:

Airport contact information

Address: Lamb Island Australia

Satellite view of YXLM